Terminal Aerodrome Forecast
Issued by NWS Sterling, VA

Current Version | Previous Version | Graphics & Text | Print | Product List | Glossary Off
Versions: 1 2 3 4 5 6 7 8 9 10 11 12 13 14 15 16 17 18 19

000
FTUS41 KLWX 211500 AAB
TAFMRB
TAF AMD
KMRB 211515Z 2115/2212 VRB03KT P6SM BKN060
     FM211800 29005KT P6SM BKN040
     FM212100 28005KT P6SM VCSH OVC040
     FM220200 32005KT P6SM OVC030
     FM220400 34006KT P6SM OVC020=

USA.gov is the U.S. government's official web portal to all federal, state and local government web resources and services.